sensor_id;sensor_type;location;lat;lon;timestamp;temperature;humidity
66586;SHT30;53444;45.822;16.092;2023-04-25T00:02:06;10.78;96.73
66586;SHT30;53444;45.822;16.092;2023-04-25T00:04:33;10.88;96.60
66586;SHT30;53444;45.822;16.092;2023-04-25T00:07:00;10.78;96.56
66586;SHT30;53444;45.822;16.092;2023-04-25T00:09:29;10.77;96.87
66586;SHT30;53444;45.822;16.092;2023-04-25T00:11:56;10.80;97.14
66586;SHT30;53444;45.822;16.092;2023-04-25T00:14:22;10.71;97.08
66586;SHT30;53444;45.822;16.092;2023-04-25T00:16:49;10.80;96.76
66586;SHT30;53444;45.822;16.092;2023-04-25T00:19:17;10.70;97.05
66586;SHT30;53444;45.822;16.092;2023-04-25T00:21:43;10.74;97.24
66586;SHT30;53444;45.822;16.092;2023-04-25T00:24:11;10.78;96.95
66586;SHT30;53444;45.822;16.092;2023-04-25T00:26:39;10.71;97.09
66586;SHT30;53444;45.822;16.092;2023-04-25T00:29:06;10.81;97.11
66586;SHT30;53444;45.822;16.092;2023-04-25T00:31:32;10.73;96.90
66586;SHT30;53444;45.822;16.092;2023-04-25T00:33:59;10.81;96.96
66586;SHT30;53444;45.822;16.092;2023-04-25T00:36:26;10.81;97.05
66586;SHT30;53444;45.822;16.092;2023-04-25T00:38:52;10.84;96.76
66586;SHT30;53444;45.822;16.092;2023-04-25T00:41:19;10.88;96.64
66586;SHT30;53444;45.822;16.092;2023-04-25T00:43:48;10.81;97.04
66586;SHT30;53444;45.822;16.092;2023-04-25T00:46:15;10.74;97.25
66586;SHT30;53444;45.822;16.092;2023-04-25T00:48:41;10.68;97.54
66586;SHT30;53444;45.822;16.092;2023-04-25T00:51:11;10.83;96.98
66586;SHT30;53444;45.822;16.092;2023-04-25T00:53:40;10.76;96.70
66586;SHT30;53444;45.822;16.092;2023-04-25T00:56:07;10.73;96.82
66586;SHT30;53444;45.822;16.092;2023-04-25T00:58:33;10.78;96.69
66586;SHT30;53444;45.822;16.092;2023-04-25T01:01:02;10.71;97.17
66586;SHT30;53444;45.822;16.092;2023-04-25T01:03:30;10.67;97.18
66586;SHT30;53444;45.822;16.092;2023-04-25T01:08:43;10.57;97.55
66586;SHT30;53444;45.822;16.092;2023-04-25T01:11:09;10.59;97.49
66586;SHT30;53444;45.822;16.092;2023-04-25T01:13:36;10.59;97.56
66586;SHT30;53444;45.822;16.092;2023-04-25T01:16:04;10.63;97.11
66586;SHT30;53444;45.822;16.092;2023-04-25T01:18:31;10.61;97.32
66586;SHT30;53444;45.822;16.092;2023-04-25T01:21:05;10.61;97.20
66586;SHT30;53444;45.822;16.092;2023-04-25T01:23:33;10.53;97.81
66586;SHT30;53444;45.822;16.092;2023-04-25T01:26:00;10.56;97.58
66586;SHT30;53444;45.822;16.092;2023-04-25T01:28:27;10.57;97.51
66586;SHT30;53444;45.822;16.092;2023-04-25T01:30:54;10.60;97.48
66586;SHT30;53444;45.822;16.092;2023-04-25T01:33:22;10.53;97.52
66586;SHT30;53444;45.822;16.092;2023-04-25T01:35:48;10.49;97.67
66586;SHT30;53444;45.822;16.092;2023-04-25T01:38:16;10.60;97.51
66586;SHT30;53444;45.822;16.092;2023-04-25T01:40:45;10.66;97.06
66586;SHT30;53444;45.822;16.092;2023-04-25T01:43:12;10.68;97.00
66586;SHT30;53444;45.822;16.092;2023-04-25T01:45:39;10.52;97.35
66586;SHT30;53444;45.822;16.092;2023-04-25T01:48:06;10.57;97.16
66586;SHT30;53444;45.822;16.092;2023-04-25T01:50:33;10.50;97.04
66586;SHT30;53444;45.822;16.092;2023-04-25T01:52:59;10.55;97.18
66586;SHT30;53444;45.822;16.092;2023-04-25T01:55:28;10.47;97.19
66586;SHT30;53444;45.822;16.092;2023-04-25T01:57:55;10.42;97.21
66586;SHT30;53444;45.822;16.092;2023-04-25T02:00:21;10.45;97.06
66586;SHT30;53444;45.822;16.092;2023-04-25T02:02:48;10.49;96.58
66586;SHT30;53444;45.822;16.092;2023-04-25T02:05:16;10.47;96.49
66586;SHT30;53444;45.822;16.092;2023-04-25T02:07:42;10.40;97.03
66586;SHT30;53444;45.822;16.092;2023-04-25T02:10:09;10.37;97.12
66586;SHT30;53444;45.822;16.092;2023-04-25T02:12:37;10.37;96.89
66586;SHT30;53444;45.822;16.092;2023-04-25T02:15:05;10.43;96.75
66586;SHT30;53444;45.822;16.092;2023-04-25T02:17:32;10.37;96.79
66586;SHT30;53444;45.822;16.092;2023-04-25T02:19:58;10.46;96.55
66586;SHT30;53444;45.822;16.092;2023-04-25T02:22:25;10.49;96.36
66586;SHT30;53444;45.822;16.092;2023-04-25T02:24:53;10.37;96.59
66586;SHT30;53444;45.822;16.092;2023-04-25T02:27:20;10.52;95.91
66586;SHT30;53444;45.822;16.092;2023-04-25T02:29:48;10.37;96.22
66586;SHT30;53444;45.822;16.092;2023-04-25T02:32:14;10.42;96.42
66586;SHT30;53444;45.822;16.092;2023-04-25T02:34:41;10.42;96.27
66586;SHT30;53444;45.822;16.092;2023-04-25T02:37:07;10.35;96.47
66586;SHT30;53444;45.822;16.092;2023-04-25T02:39:34;10.35;96.22
66586;SHT30;53444;45.822;16.092;2023-04-25T02:42:01;10.42;96.16
66586;SHT30;53444;45.822;16.092;2023-04-25T02:44:27;10.42;96.13
66586;SHT30;53444;45.822;16.092;2023-04-25T02:46:55;10.42;96.31
66586;SHT30;53444;45.822;16.092;2023-04-25T02:49:22;10.43;96.01
66586;SHT30;53444;45.822;16.092;2023-04-25T02:51:48;10.46;96.03
66586;SHT30;53444;45.822;16.092;2023-04-25T02:54:15;10.42;96.01
66586;SHT30;53444;45.822;16.092;2023-04-25T02:56:42;10.36;96.20
66586;SHT30;53444;45.822;16.092;2023-04-25T02:59:08;10.26;96.34
66586;SHT30;53444;45.822;16.092;2023-04-25T03:01:35;10.30;96.42
66586;SHT30;53444;45.822;16.092;2023-04-25T03:04:03;10.32;96.31
66586;SHT30;53444;45.822;16.092;2023-04-25T03:06:29;10.23;96.63
66586;SHT30;53444;45.822;16.092;2023-04-25T03:08:56;10.28;96.52
66586;SHT30;53444;45.822;16.092;2023-04-25T03:11:26;10.37;96.18
66586;SHT30;53444;45.822;16.092;2023-04-25T03:13:52;10.49;96.06
66586;SHT30;53444;45.822;16.092;2023-04-25T03:16:19;10.46;95.87
66586;SHT30;53444;45.822;16.092;2023-04-25T03:18:45;10.43;95.74
66586;SHT30;53444;45.822;16.092;2023-04-25T03:21:13;10.36;96.03
66586;SHT30;53444;45.822;16.092;2023-04-25T03:23:40;10.35;96.14
66586;SHT30;53444;45.822;16.092;2023-04-25T03:26:07;10.30;96.11
66586;SHT30;53444;45.822;16.092;2023-04-25T03:28:33;10.39;96.04
66586;SHT30;53444;45.822;16.092;2023-04-25T03:31:00;10.39;95.73
66586;SHT30;53444;45.822;16.092;2023-04-25T03:33:26;10.30;96.03
66586;SHT30;53444;45.822;16.092;2023-04-25T03:35:53;10.36;95.93
66586;SHT30;53444;45.822;16.092;2023-04-25T03:38:21;10.35;95.97
66586;SHT30;53444;45.822;16.092;2023-04-25T03:40:48;10.42;95.93
66586;SHT30;53444;45.822;16.092;2023-04-25T03:43:16;10.37;95.90
66586;SHT30;53444;45.822;16.092;2023-04-25T03:45:42;10.39;95.89
66586;SHT30;53444;45.822;16.092;2023-04-25T03:48:09;10.43;96.01
66586;SHT30;53444;45.822;16.092;2023-04-25T03:50:35;10.29;96.38
66586;SHT30;53444;45.822;16.092;2023-04-25T03:53:02;10.26;96.57
66586;SHT30;53444;45.822;16.092;2023-04-25T03:55:30;10.19;96.89
66586;SHT30;53444;45.822;16.092;2023-04-25T03:57:57;10.25;96.42
66586;SHT30;53444;45.822;16.092;2023-04-25T04:00:25;10.32;96.00
66586;SHT30;53444;45.822;16.092;2023-04-25T04:02:51;10.37;95.88
66586;SHT30;53444;45.822;16.092;2023-04-25T04:05:18;10.39;95.85
66586;SHT30;53444;45.822;16.092;2023-04-25T04:07:44;10.36;95.77
66586;SHT30;53444;45.822;16.092;2023-04-25T04:10:11;10.25;96.34
66586;SHT30;53444;45.822;16.092;2023-04-25T04:12:39;10.36;95.90
66586;SHT30;53444;45.822;16.092;2023-04-25T04:15:07;10.35;95.86
66586;SHT30;53444;45.822;16.092;2023-04-25T04:17:34;10.28;96.18
66586;SHT30;53444;45.822;16.092;2023-04-25T04:20:00;10.29;95.96
66586;SHT30;53444;45.822;16.092;2023-04-25T04:22:28;10.29;96.13
66586;SHT30;53444;45.822;16.092;2023-04-25T04:24:55;10.23;96.04
66586;SHT30;53444;45.822;16.092;2023-04-25T04:27:22;10.22;96.06
66586;SHT30;53444;45.822;16.092;2023-04-25T04:29:50;10.23;96.11
66586;SHT30;53444;45.822;16.092;2023-04-25T04:32:18;10.25;96.10
66586;SHT30;53444;45.822;16.092;2023-04-25T04:34:45;10.35;95.64
66586;SHT30;53444;45.822;16.092;2023-04-25T04:37:12;10.33;95.18
66586;SHT30;53444;45.822;16.092;2023-04-25T04:39:39;10.23;95.55
66586;SHT30;53444;45.822;16.092;2023-04-25T04:42:05;10.26;95.46
66586;SHT30;53444;45.822;16.092;2023-04-25T04:44:32;10.26;95.47
66586;SHT30;53444;45.822;16.092;2023-04-25T04:47:01;10.32;95.42
66586;SHT30;53444;45.822;16.092;2023-04-25T04:49:29;10.26;95.53
66586;SHT30;53444;45.822;16.092;2023-04-25T04:51:55;10.25;95.51
66586;SHT30;53444;45.822;16.092;2023-04-25T04:54:22;10.26;95.76
66586;SHT30;53444;45.822;16.092;2023-04-25T04:56:48;10.26;95.52
66586;SHT30;53444;45.822;16.092;2023-04-25T04:59:15;10.36;95.20
66586;SHT30;53444;45.822;16.092;2023-04-25T05:01:42;10.39;95.43
66586;SHT30;53444;45.822;16.092;2023-04-25T05:04:10;10.43;95.31
66586;SHT30;53444;45.822;16.092;2023-04-25T05:06:36;10.63;94.76
66586;SHT30;53444;45.822;16.092;2023-04-25T05:09:03;10.64;94.85
66586;SHT30;53444;45.822;16.092;2023-04-25T05:11:29;10.67;95.04
66586;SHT30;53444;45.822;16.092;2023-04-25T05:13:56;10.74;94.86
66586;SHT30;53444;45.822;16.092;2023-04-25T05:16:23;10.78;94.65
66586;SHT30;53444;45.822;16.092;2023-04-25T05:18:49;10.71;95.09
66586;SHT30;53444;45.822;16.092;2023-04-25T05:21:17;10.84;94.63
66586;SHT30;53444;45.822;16.092;2023-04-25T05:23:44;10.98;94.54
66586;SHT30;53444;45.822;16.092;2023-04-25T05:26:10;11.03;94.24
66586;SHT30;53444;45.822;16.092;2023-04-25T05:28:39;11.01;94.10
66586;SHT30;53444;45.822;16.092;2023-04-25T05:31:06;11.00;93.73
66586;SHT30;53444;45.822;16.092;2023-04-25T05:33:33;11.07;93.71
66586;SHT30;53444;45.822;16.092;2023-04-25T05:35:59;11.06;93.43
66586;SHT30;53444;45.822;16.092;2023-04-25T05:38:28;11.18;93.10
66586;SHT30;53444;45.822;16.092;2023-04-25T05:40:55;11.15;92.71
66586;SHT30;53444;45.822;16.092;2023-04-25T05:43:21;11.14;92.25
66586;SHT30;53444;45.822;16.092;2023-04-25T05:45:48;11.27;92.86
66586;SHT30;53444;45.822;16.092;2023-04-25T05:48:15;11.36;93.21
66586;SHT30;53444;45.822;16.092;2023-04-25T05:50:42;11.46;93.14
66586;SHT30;53444;45.822;16.092;2023-04-25T05:53:08;11.42;92.18
66586;SHT30;53444;45.822;16.092;2023-04-25T05:55:37;11.45;92.29
66586;SHT30;53444;45.822;16.092;2023-04-25T05:58:04;11.48;91.88
66586;SHT30;53444;45.822;16.092;2023-04-25T06:00:31;11.48;91.56
66586;SHT30;53444;45.822;16.092;2023-04-25T06:02:58;11.61;91.13
66586;SHT30;53444;45.822;16.092;2023-04-25T06:05:24;11.59;91.61
66586;SHT30;53444;45.822;16.092;2023-04-25T06:07:51;11.58;90.86
66586;SHT30;53444;45.822;16.092;2023-04-25T06:10:18;11.63;91.94
66586;SHT30;53444;45.822;16.092;2023-04-25T06:12:46;11.75;91.32
66586;SHT30;53444;45.822;16.092;2023-04-25T06:15:12;11.70;91.47
66586;SHT30;53444;45.822;16.092;2023-04-25T06:17:39;11.75;90.66
66586;SHT30;53444;45.822;16.092;2023-04-25T06:20:07;11.83;90.29
66586;SHT30;53444;45.822;16.092;2023-04-25T06:22:34;11.85;90.06
66586;SHT30;53444;45.822;16.092;2023-04-25T06:25:01;11.94;89.79
66586;SHT30;53444;45.822;16.092;2023-04-25T06:27:29;11.87;88.00
66586;SHT30;53444;45.822;16.092;2023-04-25T06:29:57;11.90;88.98
66586;SHT30;53444;45.822;16.092;2023-04-25T06:32:24;12.00;89.23
66586;SHT30;53444;45.822;16.092;2023-04-25T06:34:52;12.06;89.90
66586;SHT30;53444;45.822;16.092;2023-04-25T06:37:19;12.03;89.55
66586;SHT30;53444;45.822;16.092;2023-04-25T06:39:46;12.06;88.92
66586;SHT30;53444;45.822;16.092;2023-04-25T06:42:12;12.04;88.69
66586;SHT30;53444;45.822;16.092;2023-04-25T06:44:39;12.07;87.64
66586;SHT30;53444;45.822;16.092;2023-04-25T06:47:07;12.21;88.84
66586;SHT30;53444;45.822;16.092;2023-04-25T06:49:33;12.21;87.44
66586;SHT30;53444;45.822;16.092;2023-04-25T06:52:00;12.34;88.30
66586;SHT30;53444;45.822;16.092;2023-04-25T06:54:27;12.44;86.77
66586;SHT30;53444;45.822;16.092;2023-04-25T06:56:55;12.33;86.42
66586;SHT30;53444;45.822;16.092;2023-04-25T06:59:22;12.47;87.16
66586;SHT30;53444;45.822;16.092;2023-04-25T07:01:48;12.52;87.56
66586;SHT30;53444;45.822;16.092;2023-04-25T07:04:16;12.69;86.00
66586;SHT30;53444;45.822;16.092;2023-04-25T07:06:43;12.80;85.91
66586;SHT30;53444;45.822;16.092;2023-04-25T07:09:10;12.85;86.09
66586;SHT30;53444;45.822;16.092;2023-04-25T07:11:36;12.99;85.80
66586;SHT30;53444;45.822;16.092;2023-04-25T07:14:03;13.12;85.15
66586;SHT30;53444;45.822;16.092;2023-04-25T07:16:30;13.16;84.21
66586;SHT30;53444;45.822;16.092;2023-04-25T07:18:56;13.32;85.33
66586;SHT30;53444;45.822;16.092;2023-04-25T07:21:24;13.39;84.80
66586;SHT30;53444;45.822;16.092;2023-04-25T07:23:51;13.46;83.15
66586;SHT30;53444;45.822;16.092;2023-04-25T07:26:18;13.32;83.00
66586;SHT30;53444;45.822;16.092;2023-04-25T07:28:45;13.42;83.41
66586;SHT30;53444;45.822;16.092;2023-04-25T07:31:14;13.44;83.73
66586;SHT30;53444;45.822;16.092;2023-04-25T07:33:42;13.52;83.30
66586;SHT30;53444;45.822;16.092;2023-04-25T07:36:09;13.33;80.85
66586;SHT30;53444;45.822;16.092;2023-04-25T07:38:37;13.36;82.55
66586;SHT30;53444;45.822;16.092;2023-04-25T07:41:03;13.42;83.62
66586;SHT30;53444;45.822;16.092;2023-04-25T07:43:30;13.40;82.63
66586;SHT30;53444;45.822;16.092;2023-04-25T07:45:57;13.39;82.13
66586;SHT30;53444;45.822;16.092;2023-04-25T07:48:24;13.53;81.73
66586;SHT30;53444;45.822;16.092;2023-04-25T07:50:50;13.67;81.87
66586;SHT30;53444;45.822;16.092;2023-04-25T07:53:17;13.66;80.87
66586;SHT30;53444;45.822;16.092;2023-04-25T07:55:45;13.69;80.77
66586;SHT30;53444;45.822;16.092;2023-04-25T07:58:12;13.88;81.47
66586;SHT30;53444;45.822;16.092;2023-04-25T08:00:40;14.29;81.77
66586;SHT30;53444;45.822;16.092;2023-04-25T08:03:06;14.17;80.49
66586;SHT30;53444;45.822;16.092;2023-04-25T08:05:33;13.94;78.32
66586;SHT30;53444;45.822;16.092;2023-04-25T08:08:00;13.60;78.09
66586;SHT30;53444;45.822;16.092;2023-04-25T08:10:27;13.69;79.67
66586;SHT30;53444;45.822;16.092;2023-04-25T08:12:55;13.49;78.68
66586;SHT30;53444;45.822;16.092;2023-04-25T08:15:22;13.50;79.95
66586;SHT30;53444;45.822;16.092;2023-04-25T08:17:48;13.71;79.85
66586;SHT30;53444;45.822;16.092;2023-04-25T08:20:15;13.71;77.89
66586;SHT30;53444;45.822;16.092;2023-04-25T08:22:42;13.53;79.36
66586;SHT30;53444;45.822;16.092;2023-04-25T08:25:08;13.62;78.26
66586;SHT30;53444;45.822;16.092;2023-04-25T08:27:35;13.70;78.68
66586;SHT30;53444;45.822;16.092;2023-04-25T08:30:04;13.88;78.53
66586;SHT30;53444;45.822;16.092;2023-04-25T08:32:31;14.00;79.18
66586;SHT30;53444;45.822;16.092;2023-04-25T08:34:59;14.17;77.38
66586;SHT30;53444;45.822;16.092;2023-04-25T08:37:25;14.54;78.45
66586;SHT30;53444;45.822;16.092;2023-04-25T08:39:52;14.25;76.51
66586;SHT30;53444;45.822;16.092;2023-04-25T08:42:19;14.11;76.36
66586;SHT30;53444;45.822;16.092;2023-04-25T08:44:48;14.39;72.29
66586;SHT30;53444;45.822;16.092;2023-04-25T08:47:18;14.34;72.00
66586;SHT30;53444;45.822;16.092;2023-04-25T08:49:47;14.41;74.21
66586;SHT30;53444;45.822;16.092;2023-04-25T08:52:15;14.65;72.44
66586;SHT30;53444;45.822;16.092;2023-04-25T08:54:48;14.86;70.83
66586;SHT30;53444;45.822;16.092;2023-04-25T08:57:15;14.92;68.33
66586;SHT30;53444;45.822;16.092;2023-04-25T08:59:44;15.19;69.82
66586;SHT30;53444;45.822;16.092;2023-04-25T09:02:12;14.99;71.06
66586;SHT30;53444;45.822;16.092;2023-04-25T09:04:43;14.39;72.36
66586;SHT30;53444;45.822;16.092;2023-04-25T09:07:10;14.58;72.35
66586;SHT30;53444;45.822;16.092;2023-04-25T09:09:37;15.10;67.86
66586;SHT30;53444;45.822;16.092;2023-04-25T09:12:05;15.33;67.82
66586;SHT30;53444;45.822;16.092;2023-04-25T09:14:32;15.30;66.50
66586;SHT30;53444;45.822;16.092;2023-04-25T09:17:03;15.33;68.30
66586;SHT30;53444;45.822;16.092;2023-04-25T09:19:31;15.30;67.23
66586;SHT30;53444;45.822;16.092;2023-04-25T09:22:01;15.27;69.24
66586;SHT30;53444;45.822;16.092;2023-04-25T09:24:32;15.23;69.46
66586;SHT30;53444;45.822;16.092;2023-04-25T09:27:00;15.48;67.87
66586;SHT30;53444;45.822;16.092;2023-04-25T09:29:30;15.59;65.13
66586;SHT30;53444;45.822;16.092;2023-04-25T09:32:17;16.08;64.44
66586;SHT30;53444;45.822;16.092;2023-04-25T09:34:45;16.09;65.00
66586;SHT30;53444;45.822;16.092;2023-04-25T09:37:18;15.67;62.98
66586;SHT30;53444;45.822;16.092;2023-04-25T09:39:46;15.58;64.23
66586;SHT30;53444;45.822;16.092;2023-04-25T09:42:13;16.19;65.23
66586;SHT30;53444;45.822;16.092;2023-04-25T09:44:42;16.10;64.84
66586;SHT30;53444;45.822;16.092;2023-04-25T09:47:09;16.56;62.76
66586;SHT30;53444;45.822;16.092;2023-04-25T09:49:39;16.33;61.76
66586;SHT30;53444;45.822;16.092;2023-04-25T09:52:07;16.36;62.54
66586;SHT30;53444;45.822;16.092;2023-04-25T09:54:35;16.87;62.56
66586;SHT30;53444;45.822;16.092;2023-04-25T09:57:08;16.53;61.03
66586;SHT30;53444;45.822;16.092;2023-04-25T09:59:38;16.74;57.89
66586;SHT30;53444;45.822;16.092;2023-04-25T10:02:07;17.00;57.23
66586;SHT30;53444;45.822;16.092;2023-04-25T10:04:35;16.26;57.98
66586;SHT30;53444;45.822;16.092;2023-04-25T10:07:05;16.36;61.05
66586;SHT30;53444;45.822;16.092;2023-04-25T10:09:36;17.01;59.38
66586;SHT30;53444;45.822;16.092;2023-04-25T10:12:03;16.90;55.90
66586;SHT30;53444;45.822;16.092;2023-04-25T10:14:31;17.06;59.22
66586;SHT30;53444;45.822;16.092;2023-04-25T10:16:58;17.07;59.84
66586;SHT30;53444;45.822;16.092;2023-04-25T10:19:26;17.18;57.07
66586;SHT30;53444;45.822;16.092;2023-04-25T10:21:56;17.66;56.70
66586;SHT30;53444;45.822;16.092;2023-04-25T10:24:25;17.39;56.19
66586;SHT30;53444;45.822;16.092;2023-04-25T10:26:53;17.96;55.56
66586;SHT30;53444;45.822;16.092;2023-04-25T10:29:24;18.96;54.04
66586;SHT30;53444;45.822;16.092;2023-04-25T10:31:51;18.38;54.08
66586;SHT30;53444;45.822;16.092;2023-04-25T10:34:17;17.79;54.97
66586;SHT30;53444;45.822;16.092;2023-04-25T10:36:49;17.73;55.24
66586;SHT30;53444;45.822;16.092;2023-04-25T10:39:22;18.41;55.08
66586;SHT30;53444;45.822;16.092;2023-04-25T10:41:55;18.88;53.36
66586;SHT30;53444;45.822;16.092;2023-04-25T10:44:22;19.35;51.99
66586;SHT30;53444;45.822;16.092;2023-04-25T10:46:49;19.32;52.82
66586;SHT30;53444;45.822;16.092;2023-04-25T10:49:30;18.44;51.87
66586;SHT30;53444;45.822;16.092;2023-04-25T10:52:24;19.05;54.54
66586;SHT30;53444;45.822;16.092;2023-04-25T10:54:52;18.11;55.35
66586;SHT30;53444;45.822;16.092;2023-04-25T10:57:36;18.24;55.03
66586;SHT30;53444;45.822;16.092;2023-04-25T11:00:13;19.06;52.05
66586;SHT30;53444;45.822;16.092;2023-04-25T11:02:42;18.36;54.60
66586;SHT30;53444;45.822;16.092;2023-04-25T11:05:10;18.61;51.31
66586;SHT30;53444;45.822;16.092;2023-04-25T11:07:49;18.02;53.37
66586;SHT30;53444;45.822;16.092;2023-04-25T11:10:17;18.11;54.21
66586;SHT30;53444;45.822;16.092;2023-04-25T11:12:46;17.79;53.02
66586;SHT30;53444;45.822;16.092;2023-04-25T11:15:13;18.24;52.90
66586;SHT30;53444;45.822;16.092;2023-04-25T11:17:39;18.72;51.84
66586;SHT30;53444;45.822;16.092;2023-04-25T11:20:07;18.06;50.67
66586;SHT30;53444;45.822;16.092;2023-04-25T11:22:37;18.04;51.50
66586;SHT30;53444;45.822;16.092;2023-04-25T11:25:06;18.02;51.75
66586;SHT30;53444;45.822;16.092;2023-04-25T11:27:52;19.78;52.32
66586;SHT30;53444;45.822;16.092;2023-04-25T11:30:21;19.57;51.35
66586;SHT30;53444;45.822;16.092;2023-04-25T11:32:48;19.42;50.03
66586;SHT30;53444;45.822;16.092;2023-04-25T11:35:16;19.53;51.11
66586;SHT30;53444;45.822;16.092;2023-04-25T11:37:43;20.44;47.85
66586;SHT30;53444;45.822;16.092;2023-04-25T11:40:10;20.25;48.01
66586;SHT30;53444;45.822;16.092;2023-04-25T11:42:38;19.67;47.36
66586;SHT30;53444;45.822;16.092;2023-04-25T11:45:07;18.75;49.51
66586;SHT30;53444;45.822;16.092;2023-04-25T11:47:35;18.44;50.17
66586;SHT30;53444;45.822;16.092;2023-04-25T11:50:03;18.48;49.32
66586;SHT30;53444;45.822;16.092;2023-04-25T11:52:40;19.43;47.86
66586;SHT30;53444;45.822;16.092;2023-04-25T11:55:08;19.95;47.12
66586;SHT30;53444;45.822;16.092;2023-04-25T11:57:37;21.00;46.50
66586;SHT30;53444;45.822;16.092;2023-04-25T12:00:08;20.75;45.54
66586;SHT30;53444;45.822;16.092;2023-04-25T12:02:36;20.21;45.57
66586;SHT30;53444;45.822;16.092;2023-04-25T12:05:06;19.87;45.64
66586;SHT30;53444;45.822;16.092;2023-04-25T12:07:33;18.82;48.45
66586;SHT30;53444;45.822;16.092;2023-04-25T12:10:04;19.11;46.52
66586;SHT30;53444;45.822;16.092;2023-04-25T12:12:32;18.82;48.85
66586;SHT30;53444;45.822;16.092;2023-04-25T12:15:10;18.65;49.15
66586;SHT30;53444;45.822;16.092;2023-04-25T12:17:38;19.19;48.11
66586;SHT30;53444;45.822;16.092;2023-04-25T12:20:09;20.32;47.14
66586;SHT30;53444;45.822;16.092;2023-04-25T12:22:36;20.21;47.02
66586;SHT30;53444;45.822;16.092;2023-04-25T12:25:03;20.31;47.61
66586;SHT30;53444;45.822;16.092;2023-04-25T12:27:31;19.15;48.32
66586;SHT30;53444;45.822;16.092;2023-04-25T12:29:59;19.43;47.54
66586;SHT30;53444;45.822;16.092;2023-04-25T12:32:27;20.90;44.15
66586;SHT30;53444;45.822;16.092;2023-04-25T12:34:53;21.73;44.47
66586;SHT30;53444;45.822;16.092;2023-04-25T12:37:20;21.23;44.00
66586;SHT30;53444;45.822;16.092;2023-04-25T12:39:46;20.89;45.69
66586;SHT30;53444;45.822;16.092;2023-04-25T12:42:13;20.68;44.71
66586;SHT30;53444;45.822;16.092;2023-04-25T12:44:40;19.57;45.86
66586;SHT30;53444;45.822;16.092;2023-04-25T12:47:06;19.64;45.77
66586;SHT30;53444;45.822;16.092;2023-04-25T12:49:34;19.85;46.04
66586;SHT30;53444;45.822;16.092;2023-04-25T12:52:01;19.57;43.90
66586;SHT30;53444;45.822;16.092;2023-04-25T12:54:28;19.26;47.43
66586;SHT30;53444;45.822;16.092;2023-04-25T12:56:54;19.39;47.04
66586;SHT30;53444;45.822;16.092;2023-04-25T12:59:21;21.24;44.31
66586;SHT30;53444;45.822;16.092;2023-04-25T13:01:48;22.28;41.68
66586;SHT30;53444;45.822;16.092;2023-04-25T13:04:15;22.73;39.23
66586;SHT30;53444;45.822;16.092;2023-04-25T13:06:44;23.22;39.67
66586;SHT30;53444;45.822;16.092;2023-04-25T13:09:10;23.72;39.03
66586;SHT30;53444;45.822;16.092;2023-04-25T13:11:37;23.22;37.95
66586;SHT30;53444;45.822;16.092;2023-04-25T13:14:04;23.03;39.46
66586;SHT30;53444;45.822;16.092;2023-04-25T13:16:32;22.18;41.72
66586;SHT30;53444;45.822;16.092;2023-04-25T13:18:58;21.40;43.86
66586;SHT30;53444;45.822;16.092;2023-04-25T13:21:25;20.99;44.19
66586;SHT30;53444;45.822;16.092;2023-04-25T13:23:53;20.64;44.78
66586;SHT30;53444;45.822;16.092;2023-04-25T13:26:20;20.69;45.79
66586;SHT30;53444;45.822;16.092;2023-04-25T13:28:46;21.00;45.19
66586;SHT30;53444;45.822;16.092;2023-04-25T13:31:13;21.41;44.74
66586;SHT30;53444;45.822;16.092;2023-04-25T13:33:40;20.87;47.29
66586;SHT30;53444;45.822;16.092;2023-04-25T13:36:06;20.59;47.46
66586;SHT30;53444;45.822;16.092;2023-04-25T13:38:33;20.66;47.01
66586;SHT30;53444;45.822;16.092;2023-04-25T13:41:01;20.01;48.95
66586;SHT30;53444;45.822;16.092;2023-04-25T13:43:28;19.93;49.73
66586;SHT30;53444;45.822;16.092;2023-04-25T13:45:55;19.64;49.81
66586;SHT30;53444;45.822;16.092;2023-04-25T13:48:21;19.23;49.04
66586;SHT30;53444;45.822;16.092;2023-04-25T13:50:48;19.06;50.59
66586;SHT30;53444;45.822;16.092;2023-04-25T13:53:15;19.05;50.80
66586;SHT30;53444;45.822;16.092;2023-04-25T13:55:41;18.84;51.09
66586;SHT30;53444;45.822;16.092;2023-04-25T13:58:09;18.69;50.97
66586;SHT30;53444;45.822;16.092;2023-04-25T14:00:38;18.85;50.98
66586;SHT30;53444;45.822;16.092;2023-04-25T14:03:05;18.76;50.06
66586;SHT30;53444;45.822;16.092;2023-04-25T14:05:34;18.74;50.66
66586;SHT30;53444;45.822;16.092;2023-04-25T14:08:04;18.55;50.37
66586;SHT30;53444;45.822;16.092;2023-04-25T14:10:31;18.58;51.00
66586;SHT30;53444;45.822;16.092;2023-04-25T14:12:57;18.78;51.55
66586;SHT30;53444;45.822;16.092;2023-04-25T14:15:25;18.94;51.48
66586;SHT30;53444;45.822;16.092;2023-04-25T14:17:52;19.09;50.81
66586;SHT30;53444;45.822;16.092;2023-04-25T14:20:19;18.81;50.74
66586;SHT30;53444;45.822;16.092;2023-04-25T14:22:46;18.74;51.11
66586;SHT30;53444;45.822;16.092;2023-04-25T14:25:13;18.78;49.02
66586;SHT30;53444;45.822;16.092;2023-04-25T14:27:40;18.82;49.46
66586;SHT30;53444;45.822;16.092;2023-04-25T14:30:08;18.85;49.45
66586;SHT30;53444;45.822;16.092;2023-04-25T14:32:36;18.31;50.44
66586;SHT30;53444;45.822;16.092;2023-04-25T14:35:03;18.40;50.83
66586;SHT30;53444;45.822;16.092;2023-04-25T14:37:30;18.48;50.36
66586;SHT30;53444;45.822;16.092;2023-04-25T14:39:57;18.55;51.75
66586;SHT30;53444;45.822;16.092;2023-04-25T14:42:24;18.38;50.10
66586;SHT30;53444;45.822;16.092;2023-04-25T14:44:51;18.41;50.37
66586;SHT30;53444;45.822;16.092;2023-04-25T14:47:17;18.47;51.01
66586;SHT30;53444;45.822;16.092;2023-04-25T14:49:45;18.55;50.22
66586;SHT30;53444;45.822;16.092;2023-04-25T14:52:19;18.55;51.59
66586;SHT30;53444;45.822;16.092;2023-04-25T14:54:45;18.52;52.92
66586;SHT30;53444;45.822;16.092;2023-04-25T14:57:12;18.51;52.62
66586;SHT30;53444;45.822;16.092;2023-04-25T14:59:39;18.47;51.92
66586;SHT30;53444;45.822;16.092;2023-04-25T15:02:05;18.36;52.34
66586;SHT30;53444;45.822;16.092;2023-04-25T15:04:32;18.33;52.19
66586;SHT30;53444;45.822;16.092;2023-04-25T15:07:00;18.18;51.65
66586;SHT30;53444;45.822;16.092;2023-04-25T15:09:28;18.18;52.20
66586;SHT30;53444;45.822;16.092;2023-04-25T15:11:54;18.11;52.22
66586;SHT30;53444;45.822;16.092;2023-04-25T15:14:21;18.16;52.92
66586;SHT30;53444;45.822;16.092;2023-04-25T15:16:48;18.04;52.45
66586;SHT30;53444;45.822;16.092;2023-04-25T15:19:15;18.11;53.01
66586;SHT30;53444;45.822;16.092;2023-04-25T15:21:42;17.92;53.30